Imperial Eagle — V7TK5 — position and weather

sailwx.info

Track history (hours):
 
Tides and Currents Weather Stations Pressure Air Temp Water Temp Dewpoint Dewpoint Depression Visibility Wind Speed Wind Dir Waves Ship Positions

Imperial Eagle

Last reported at 2016-Sep-08 23:25 UTC. Time now 2016-Sep-30 16:51 UTC.
Position N 36°11' E 014°48'.
Warning: this ship's position is 21 days out of date.

Length 190 m; draft 12.5 m.

Type: Cargo ship. MMSI: 256759020.

Date/timePositionNaut miles runAvg speedWind from/ knotsBaromVisibWave heightAir tempDewpointWater temp
2016-Sep-08 23:25N 36°11' E 014°48'1112.3
2016-Sep-08 22:33N 36°13' E 014°35'1212.4
2016-Sep-08 21:33N 36°17' E 014°21'1212.5
2016-Sep-08 20:33N 36°22' E 014°06'1312.5
2016-Sep-08 19:33N 36°26' E 013°51'1812.4
2016-Sep-08 18:07N 36°34' E 013°32'1012.5
2016-Sep-08 17:20N 36°38' E 013°21'2512.5
2016-Sep-08 15:18N 36°48' E 012°51'52212.5
2016-Sep-06 21:34N 36°54' E 001°60'1313.0
2016-Sep-06 20:33N 36°52' E 001°43'1612.7
2016-Sep-06 19:19N 36°50' E 001°24'1312.6
2016-Sep-06 18:17N 36°48' E 001°08'1312.4
2016-Sep-06 17:17N 36°46' E 000°53'912.1
2016-Sep-06 16:33N 36°44' E 000°42'1211.8
2016-Sep-06 15:33N 36°42' E 000°27'1211.8
2016-Sep-06 14:31N 36°41' E 000°12'1611.8
2016-Sep-06 13:11N 36°38' W 000°07'711.5
2016-Sep-06 12:33N 36°37' W 000°16'1211.9
2016-Sep-06 11:33N 36°35' W 000°31'1312.3
2016-Sep-06 10:29N 36°33' W 000°47'1112.2
2016-Sep-06 09:33N 36°31' W 001°01'1612.3
2016-Sep-06 08:15N 36°29' W 001°21'1012.2
2016-Sep-06 07:28N 36°27' W 001°32'1112.5
2016-Sep-06 06:33N 36°25' W 001°46'2512.5
2016-Sep-06 04:33N 36°21' W 002°17'1313.0
2016-Sep-06 03:34N 36°20' W 002°33'1312.6
2016-Sep-06 02:33N 36°18' W 002°48'1312.6
2016-Sep-06 01:33N 36°17' W 003°04'1712.9
2016-Sep-06 00:13N 36°14' W 003°25'7513.1
2016-Sep-05 18:32N 36°05' W 004°57'1313.3
2016-Sep-05 17:33N 36°04' W 005°13'8 8.2
2016-Sep-05 16:33N 36°05' W 005°23'2 2.3
2016-Sep-05 15:33N 36°03' W 005°23'9 9.4
2016-Sep-05 14:33N 35°57' W 005°32'1010.4
2016-Sep-05 13:33N 35°55' W 005°45'16211.6
2016-Sep-04 23:33N 36°12' W 009°05'1211.9
2016-Sep-04 22:33N 36°14' W 009°19'1212.0
2016-Sep-04 21:33N 36°17' W 009°33'1212.1
2016-Sep-04 20:33N 36°20' W 009°48'1212.2
2016-Sep-04 19:33N 36°22' W 010°03'1212.2
2016-Sep-04 18:33N 36°25' W 010°18'1212.0
2016-Sep-04 17:33N 36°27' W 010°32'1212.0
2016-Sep-04 16:33N 36°30' W 010°47'1212.1
2016-Sep-04 15:33N 36°32' W 011°02'1211.9
2016-Sep-04 14:33N 36°35' W 011°16'1211.9
2016-Sep-04 13:33N 36°37' W 011°31'1211.6
2016-Sep-04 12:33N 36°39' W 011°45'1212.2
2016-Sep-04 11:33N 36°42' W 011°60'1212.3
2016-Sep-04 10:33N 36°44' W 012°15'1512.4
2016-Sep-04 09:21N 36°47' W 012°33'912.0
2016-Sep-04 08:33N 36°49' W 012°45'1312.8
2016-Sep-04 07:33N 36°51' W 013°00'1412.5
2016-Sep-04 06:27N 36°54' W 013°17'8712.3
2016-Sep-03 23:25N 37°09' W 015°04'1012.0
2016-Sep-03 22:33N 37°11' W 015°17'2812.1
2016-Sep-03 20:12N 37°15' W 015°52'1212.6
2016-Sep-03 19:15N 37°17' W 016°07'812.2
2016-Sep-03 18:33N 37°18' W 016°18'1212.4
2016-Sep-03 17:33N 37°20' W 016°33'1412.1
2016-Sep-03 16:24N 37°22' W 016°50'30212.1
2016-Sep-02 15:28N 37°56' W 023°10'1111.7
2016-Sep-02 14:33N 37°57' W 023°23'1212.4
2016-Sep-02 13:33N 37°57' W 023°39'1212.0
2016-Sep-02 12:33N 37°58' W 023°54'1211.8
2016-Sep-02 11:34N 37°59' W 024°09'1212.4
2016-Sep-02 10:33N 37°60' W 024°25'1312.9
2016-Sep-02 09:33N 38°01' W 024°41'1312.6
2016-Sep-02 08:34N 38°01' W 024°57'1212.2
2016-Sep-02 07:33N 38°02' W 025°12'1212.3
2016-Sep-02 06:34N 38°02' W 025°28'1212.3
2016-Sep-02 05:33N 38°03' W 025°44'1312.7
2016-Sep-02 04:33N 38°03' W 025°60'1212.3
2016-Sep-02 03:33N 38°03' W 026°15'1312.7
2016-Sep-02 02:33N 38°03' W 026°31'1212.3
2016-Sep-02 01:33N 38°03' W 026°47'1312.6
2016-Sep-02 00:33N 38°03' W 027°03'1312.5
2016-Sep-01 23:33N 38°03' W 027°19'1312.6
2016-Sep-01 22:33N 38°03' W 027°35'1312.7
2016-Sep-01 21:33N 38°02' W 027°51'1312.8
2016-Sep-01 20:33N 38°03' W 028°07'1312.8
2016-Sep-01 19:33N 38°03' W 028°23'1312.6
2016-Sep-01 18:33N 38°03' W 028°39'1212.3
2016-Sep-01 17:33N 38°04' W 028°55'1212.5
2016-Sep-01 16:34N 38°04' W 029°11'1212.4
2016-Sep-01 15:33N 38°04' W 029°27'1212.3
2016-Sep-01 14:33N 38°04' W 029°42'1212.1
2016-Sep-01 13:33N 38°04' W 029°58'1212.2
2016-Sep-01 12:33N 38°05' W 030°13'1212.4
2016-Sep-01 11:33N 38°05' W 030°29'  
Track history (hours):
 
Tides and Currents Weather Stations Pressure Air Temp Water Temp Dewpoint Dewpoint Depression Visibility Wind Speed Wind Dir Waves Ship Positions

Imperial Eagle

Last reported at 2016-Sep-08 23:25 UTC. Time now 2016-Sep-30 16:51 UTC.
Position N 36°11' E 014°48'.
Warning: this ship's position is 21 days out of date.

Length 190 m; draft 12.5 m.

Type: Cargo ship. MMSI: 256759020.

Date/timePositionNaut miles runAvg speedWind from/ knotsBaromVisibWave heightAir tempDewpointWater temp
2016-Sep-08 23:25N 36°11' E 014°48'1112.3
2016-Sep-08 22:33N 36°13' E 014°35'1212.4
2016-Sep-08 21:33N 36°17' E 014°21'1212.5
2016-Sep-08 20:33N 36°22' E 014°06'1312.5
2016-Sep-08 19:33N 36°26' E 013°51'1812.4
2016-Sep-08 18:07N 36°34' E 013°32'1012.5
2016-Sep-08 17:20N 36°38' E 013°21'2512.5
2016-Sep-08 15:18N 36°48' E 012°51'52212.5
2016-Sep-06 21:34N 36°54' E 001°60'1313.0
2016-Sep-06 20:33N 36°52' E 001°43'1612.7
2016-Sep-06 19:19N 36°50' E 001°24'1312.6
2016-Sep-06 18:17N 36°48' E 001°08'1312.4
2016-Sep-06 17:17N 36°46' E 000°53'912.1
2016-Sep-06 16:33N 36°44' E 000°42'1211.8
2016-Sep-06 15:33N 36°42' E 000°27'1211.8
2016-Sep-06 14:31N 36°41' E 000°12'1611.8
2016-Sep-06 13:11N 36°38' W 000°07'711.5
2016-Sep-06 12:33N 36°37' W 000°16'1211.9
2016-Sep-06 11:33N 36°35' W 000°31'1312.3
2016-Sep-06 10:29N 36°33' W 000°47'1112.2
2016-Sep-06 09:33N 36°31' W 001°01'1612.3
2016-Sep-06 08:15N 36°29' W 001°21'1012.2
2016-Sep-06 07:28N 36°27' W 001°32'1112.5
2016-Sep-06 06:33N 36°25' W 001°46'2512.5
2016-Sep-06 04:33N 36°21' W 002°17'1313.0
2016-Sep-06 03:34N 36°20' W 002°33'1312.6
2016-Sep-06 02:33N 36°18' W 002°48'1312.6
2016-Sep-06 01:33N 36°17' W 003°04'1712.9
2016-Sep-06 00:13N 36°14' W 003°25'7513.1
2016-Sep-05 18:32N 36°05' W 004°57'1313.3
2016-Sep-05 17:33N 36°04' W 005°13'8 8.2
2016-Sep-05 16:33N 36°05' W 005°23'2 2.3
2016-Sep-05 15:33N 36°03' W 005°23'9 9.4
2016-Sep-05 14:33N 35°57' W 005°32'1010.4
2016-Sep-05 13:33N 35°55' W 005°45'16211.6
2016-Sep-04 23:33N 36°12' W 009°05'1211.9
2016-Sep-04 22:33N 36°14' W 009°19'1212.0
2016-Sep-04 21:33N 36°17' W 009°33'1212.1
2016-Sep-04 20:33N 36°20' W 009°48'1212.2
2016-Sep-04 19:33N 36°22' W 010°03'1212.2
2016-Sep-04 18:33N 36°25' W 010°18'1212.0
2016-Sep-04 17:33N 36°27' W 010°32'1212.0
2016-Sep-04 16:33N 36°30' W 010°47'1212.1
2016-Sep-04 15:33N 36°32' W 011°02'1211.9
2016-Sep-04 14:33N 36°35' W 011°16'1211.9
2016-Sep-04 13:33N 36°37' W 011°31'1211.6
2016-Sep-04 12:33N 36°39' W 011°45'1212.2
2016-Sep-04 11:33N 36°42' W 011°60'1212.3
2016-Sep-04 10:33N 36°44' W 012°15'1512.4
2016-Sep-04 09:21N 36°47' W 012°33'912.0
2016-Sep-04 08:33N 36°49' W 012°45'1312.8
2016-Sep-04 07:33N 36°51' W 013°00'1412.5
2016-Sep-04 06:27N 36°54' W 013°17'8712.3
2016-Sep-03 23:25N 37°09' W 015°04'1012.0
2016-Sep-03 22:33N 37°11' W 015°17'2812.1
2016-Sep-03 20:12N 37°15' W 015°52'1212.6
2016-Sep-03 19:15N 37°17' W 016°07'812.2
2016-Sep-03 18:33N 37°18' W 016°18'1212.4
2016-Sep-03 17:33N 37°20' W 016°33'1412.1
2016-Sep-03 16:24N 37°22' W 016°50'30212.1
2016-Sep-02 15:28N 37°56' W 023°10'1111.7
2016-Sep-02 14:33N 37°57' W 023°23'1212.4
2016-Sep-02 13:33N 37°57' W 023°39'1212.0
2016-Sep-02 12:33N 37°58' W 023°54'1211.8
2016-Sep-02 11:34N 37°59' W 024°09'1212.4
2016-Sep-02 10:33N 37°60' W 024°25'1312.9
2016-Sep-02 09:33N 38°01' W 024°41'1312.6
2016-Sep-02 08:34N 38°01' W 024°57'1212.2
2016-Sep-02 07:33N 38°02' W 025°12'1212.3
2016-Sep-02 06:34N 38°02' W 025°28'1212.3
2016-Sep-02 05:33N 38°03' W 025°44'1312.7
2016-Sep-02 04:33N 38°03' W 025°60'1212.3
2016-Sep-02 03:33N 38°03' W 026°15'1312.7
2016-Sep-02 02:33N 38°03' W 026°31'1212.3
2016-Sep-02 01:33N 38°03' W 026°47'1312.6
2016-Sep-02 00:33N 38°03' W 027°03'1312.5
2016-Sep-01 23:33N 38°03' W 027°19'1312.6
2016-Sep-01 22:33N 38°03' W 027°35'1312.7
2016-Sep-01 21:33N 38°02' W 027°51'1312.8
2016-Sep-01 20:33N 38°03' W 028°07'1312.8
2016-Sep-01 19:33N 38°03' W 028°23'1312.6
2016-Sep-01 18:33N 38°03' W 028°39'1212.3
2016-Sep-01 17:33N 38°04' W 028°55'1212.5
2016-Sep-01 16:34N 38°04' W 029°11'1212.4
2016-Sep-01 15:33N 38°04' W 029°27'1212.3
2016-Sep-01 14:33N 38°04' W 029°42'1212.1
2016-Sep-01 13:33N 38°04' W 029°58'1212.2
2016-Sep-01 12:33N 38°05' W 030°13'1212.4
2016-Sep-01 11:33N 38°05' W 030°29'  

Dump ship's entire track history